createdAt,value
2022-07-30T00:01:53.926Z,99.90
2022-07-30T00:04:24.402Z,99.90
2022-07-30T00:06:52.284Z,99.90
2022-07-30T00:09:20.147Z,99.90
2022-07-30T00:11:48.002Z,99.90
2022-07-30T00:14:15.833Z,99.90
2022-07-30T00:16:43.787Z,99.90
2022-07-30T00:19:12.566Z,99.90
2022-07-30T00:21:42.011Z,99.90
2022-07-30T00:24:11.439Z,99.90
2022-07-30T00:26:39.250Z,99.90
2022-07-30T00:29:07.144Z,99.90
2022-07-30T00:31:34.957Z,99.90
2022-07-30T00:34:02.827Z,99.90
2022-07-30T00:36:30.644Z,99.90
2022-07-30T00:38:59.874Z,99.90
2022-07-30T00:41:27.761Z,99.90
2022-07-30T00:43:55.628Z,99.90
2022-07-30T00:46:23.636Z,99.90
2022-07-30T00:48:51.537Z,99.90
2022-07-30T00:51:19.436Z,99.90
2022-07-30T00:53:47.242Z,99.90
2022-07-30T00:56:17.105Z,99.90
2022-07-30T00:58:44.959Z,99.90
2022-07-30T01:01:12.863Z,99.90
2022-07-30T01:03:40.716Z,99.90
2022-07-30T01:06:14.138Z,99.90
2022-07-30T01:08:43.374Z,1.00
2022-07-30T01:11:11.468Z,1.00
2022-07-30T01:13:40.636Z,1.00
2022-07-30T01:16:08.598Z,1.00
2022-07-30T01:18:50.929Z,1.00
2022-07-30T01:21:21.585Z,1.00
2022-07-30T01:23:50.839Z,1.00
2022-07-30T01:26:22.198Z,1.00
2022-07-30T01:28:51.283Z,1.00
2022-07-30T01:31:20.173Z,99.90
2022-07-30T01:33:49.656Z,99.90
2022-07-30T01:36:18.139Z,99.90
2022-07-30T01:38:46.947Z,1.00
2022-07-30T01:41:16.236Z,99.90
2022-07-30T01:43:46.893Z,99.90
2022-07-30T01:46:15.929Z,1.00
2022-07-30T01:48:44.963Z,99.90
2022-07-30T01:51:13.580Z,99.90
2022-07-30T01:53:42.042Z,1.00
2022-07-30T01:56:11.439Z,1.00
2022-07-30T01:58:41.217Z,1.00
2022-07-30T02:01:10.492Z,1.00
2022-07-30T02:03:38.421Z,1.00
2022-07-30T02:06:09.324Z,1.00
2022-07-30T02:08:39.284Z,1.00
2022-07-30T02:11:08.586Z,99.90
2022-07-30T02:13:37.931Z,87.30
2022-07-30T02:16:10.958Z,99.90
2022-07-30T02:18:44.537Z,5.70
2022-07-30T02:21:13.742Z,1.00
2022-07-30T02:23:43.378Z,1.00
2022-07-30T02:26:15.981Z,1.00
2022-07-30T02:28:44.911Z,1.00
2022-07-30T02:31:17.037Z,1.00
2022-07-30T02:33:49.520Z,1.00
2022-07-30T02:36:18.089Z,1.00
2022-07-30T02:38:47.591Z,1.00
2022-07-30T02:41:15.925Z,1.00
2022-07-30T02:43:43.895Z,1.00
2022-07-30T02:46:13.402Z,1.00
2022-07-30T02:48:41.929Z,1.00
2022-07-30T02:51:11.580Z,1.00
2022-07-30T02:53:41.250Z,53.70
2022-07-30T02:56:09.959Z,1.00
2022-07-30T02:58:39.192Z,99.90
2022-07-30T03:01:07.938Z,1.00
2022-07-30T03:03:36.206Z,1.00
2022-07-30T03:06:06.320Z,54.10
2022-07-30T03:08:36.234Z,99.90
2022-07-30T03:11:04.477Z,99.90
2022-07-30T03:13:32.388Z,23.80
2022-07-30T03:16:01.192Z,99.90
2022-07-30T03:18:33.303Z,77.40
2022-07-30T03:21:01.721Z,1.00
2022-07-30T03:23:30.351Z,2.60
2022-07-30T03:26:01.487Z,1.00
2022-07-30T03:28:31.404Z,1.00
2022-07-30T03:30:59.629Z,99.90
2022-07-30T03:33:38.407Z,1.00
2022-07-30T03:36:08.075Z,1.00
2022-07-30T03:38:37.678Z,1.00
2022-07-30T03:41:07.538Z,2.80
2022-07-30T03:43:35.954Z,1.00
2022-07-30T03:46:04.386Z,99.90
2022-07-30T03:48:34.470Z,1.00
2022-07-30T03:51:03.741Z,40.90
2022-07-30T03:53:32.252Z,1.00
2022-07-30T03:56:00.727Z,99.90
2022-07-30T03:58:35.743Z,8.40
2022-07-30T04:01:04.107Z,99.90
2022-07-30T04:03:32.822Z,1.00
2022-07-30T04:06:01.294Z,1.00
2022-07-30T04:08:29.499Z,99.90
2022-07-30T04:10:57.572Z,66.80
2022-07-30T04:13:25.419Z,99.90
2022-07-30T04:16:05.575Z,97.90
2022-07-30T04:18:45.958Z,1.00
2022-07-30T04:21:17.130Z,99.90
2022-07-30T04:24:02.286Z,99.90
2022-07-30T04:26:33.805Z,99.90
2022-07-30T04:29:02.239Z,99.90
2022-07-30T04:31:40.545Z,49.90
2022-07-30T04:34:09.477Z,59.60
2022-07-30T04:36:37.414Z,99.90
2022-07-30T04:39:05.379Z,1.00
2022-07-30T04:41:33.534Z,14.00
2022-07-30T04:44:18.371Z,99.90
2022-07-30T04:46:47.843Z,99.90
2022-07-30T04:49:17.183Z,99.90
2022-07-30T04:51:45.835Z,14.30
2022-07-30T04:54:15.681Z,99.90
2022-07-30T04:57:01.075Z,99.90
2022-07-30T04:59:29.140Z,1.00
2022-07-30T05:01:58.915Z,1.00
2022-07-30T05:04:27.437Z,99.90
2022-07-30T05:06:55.826Z,1.00
2022-07-30T05:09:24.103Z,1.00
2022-07-30T05:11:52.622Z,1.00
2022-07-30T05:14:20.678Z,99.90
2022-07-30T05:16:48.754Z,99.90
2022-07-30T05:19:18.764Z,99.90
2022-07-30T05:21:46.801Z,1.00
2022-07-30T05:24:16.428Z,99.90
2022-07-30T05:26:44.359Z,99.90
2022-07-30T05:29:19.681Z,1.00
2022-07-30T05:31:48.423Z,99.90
2022-07-30T05:34:16.263Z,1.00
2022-07-30T05:36:45.658Z,99.90
2022-07-30T05:39:14.034Z,1.00
2022-07-30T05:41:41.869Z,99.90
2022-07-30T05:44:09.718Z,1.00
2022-07-30T05:46:37.610Z,1.00
2022-07-30T05:49:06.413Z,99.90
2022-07-30T05:51:34.361Z,1.00
2022-07-30T05:54:03.537Z,99.90
2022-07-30T05:56:31.388Z,99.90
2022-07-30T05:58:59.224Z,1.00
2022-07-30T06:01:27.138Z,99.90
2022-07-30T06:03:55.847Z,99.90
2022-07-30T06:06:23.668Z,1.00
2022-07-30T06:08:51.542Z,1.00
2022-07-30T06:11:20.985Z,1.00
2022-07-30T06:13:48.814Z,1.00
2022-07-30T06:16:16.740Z,69.10
2022-07-30T06:18:44.691Z,99.90
2022-07-30T06:21:12.534Z,1.00
2022-07-30T06:23:40.377Z,98.30
2022-07-30T06:26:08.207Z,99.90
2022-07-30T06:28:38.754Z,1.00
2022-07-30T06:31:07.275Z,99.90
2022-07-30T06:33:35.276Z,99.90
2022-07-30T06:36:03.255Z,99.90
2022-07-30T06:38:31.203Z,99.90
2022-07-30T06:41:02.889Z,1.00
2022-07-30T06:43:32.605Z,91.50
2022-07-30T06:46:01.895Z,99.90
2022-07-30T06:48:31.145Z,14.10
2022-07-30T06:50:59.000Z,1.00
2022-07-30T06:53:26.828Z,99.90
2022-07-30T06:55:58.323Z,99.90
2022-07-30T06:58:29.240Z,1.00
2022-07-30T07:00:57.226Z,1.00
2022-07-30T07:03:40.359Z,99.90
2022-07-30T07:06:08.533Z,99.90
2022-07-30T07:08:36.731Z,1.00
2022-07-30T07:11:04.574Z,59.60
2022-07-30T07:13:32.402Z,1.00
2022-07-30T07:16:00.258Z,99.90
2022-07-30T07:18:29.485Z,34.70
2022-07-30T07:20:57.417Z,99.90
2022-07-30T07:23:25.352Z,59.50
2022-07-30T07:26:07.737Z,1.00
2022-07-30T07:28:35.603Z,1.00
2022-07-30T07:31:03.513Z,1.00
2022-07-30T07:33:32.744Z,1.00
2022-07-30T07:36:00.544Z,98.10
2022-07-30T07:38:28.416Z,1.00
2022-07-30T07:40:56.282Z,1.00
2022-07-30T07:43:25.411Z,1.00
2022-07-30T07:45:53.330Z,99.90
2022-07-30T07:48:21.156Z,99.90
2022-07-30T07:50:50.409Z,98.70
2022-07-30T07:53:18.273Z,13.50
2022-07-30T07:55:46.104Z,1.00
2022-07-30T07:58:21.431Z,1.00
2022-07-30T08:00:54.236Z,99.90
2022-07-30T08:03:22.147Z,99.90
2022-07-30T08:05:56.939Z,99.90
2022-07-30T08:08:34.057Z,99.90
2022-07-30T08:11:01.906Z,99.90
2022-07-30T08:13:52.164Z,99.90
2022-07-30T08:16:17.748Z,99.90
2022-07-30T08:18:45.611Z,99.90
2022-07-30T08:21:15.373Z,99.90
2022-07-30T08:23:43.198Z,99.90
2022-07-30T08:26:11.056Z,48.50
2022-07-30T08:28:38.971Z,25.60
2022-07-30T08:31:06.883Z,1.00
2022-07-30T08:33:35.128Z,1.00
2022-07-30T08:36:04.138Z,1.00
2022-07-30T08:38:38.556Z,1.00
2022-07-30T08:41:06.591Z,99.90
2022-07-30T08:43:36.385Z,99.90
2022-07-30T08:46:06.288Z,99.90
2022-07-30T08:48:34.467Z,99.90
2022-07-30T08:51:02.355Z,99.90
2022-07-30T08:53:30.533Z,99.90
2022-07-30T08:55:59.730Z,99.90
2022-07-30T08:58:29.526Z,99.90
2022-07-30T09:00:57.534Z,99.90
2022-07-30T09:03:25.647Z,99.90
2022-07-30T09:05:53.492Z,99.90
2022-07-30T09:08:21.374Z,99.90
2022-07-30T09:10:52.931Z,65.50
2022-07-30T09:13:29.396Z,59.50
2022-07-30T09:15:57.437Z,92.80
2022-07-30T09:18:29.416Z,61.40
2022-07-30T09:20:57.255Z,60.90
2022-07-30T09:23:25.111Z,35.20
2022-07-30T09:25:53.042Z,34.20
2022-07-30T09:28:30.077Z,15.50
2022-07-30T09:30:58.588Z,4.50
2022-07-30T09:33:33.790Z,7.40
2022-07-30T09:36:02.131Z,1.00
2022-07-30T09:38:30.221Z,1.00
2022-07-30T09:41:04.864Z,1.00
2022-07-30T09:43:45.762Z,1.00
2022-07-30T09:46:13.989Z,1.00
2022-07-30T09:48:42.272Z,1.00
2022-07-30T09:51:10.260Z,1.00
2022-07-30T09:53:56.215Z,1.00
2022-07-30T09:56:26.131Z,1.00
2022-07-30T09:58:55.407Z,1.00
2022-07-30T10:01:24.596Z,1.00
2022-07-30T10:04:24.112Z,1.00
2022-07-30T10:06:52.457Z,1.00
2022-07-30T10:09:27.636Z,1.00
2022-07-30T10:11:56.379Z,1.00
2022-07-30T10:14:31.324Z,1.00
2022-07-30T10:17:00.540Z,1.00
2022-07-30T10:19:40.377Z,1.00
2022-07-30T10:22:10.268Z,1.00
2022-07-30T10:24:39.739Z,1.00
2022-07-30T10:27:09.667Z,1.00
2022-07-30T10:29:42.536Z,1.00
2022-07-30T10:32:10.964Z,1.00
2022-07-30T10:34:42.469Z,1.00
2022-07-30T10:37:12.456Z,1.00
2022-07-30T10:39:41.006Z,1.00
2022-07-30T10:42:16.151Z,1.00
2022-07-30T10:45:02.612Z,1.00
2022-07-30T10:47:40.403Z,1.00
2022-07-30T10:50:17.791Z,1.00
2022-07-30T10:52:50.543Z,1.00
2022-07-30T10:55:19.547Z,1.00
2022-07-30T10:58:06.576Z,1.00
2022-07-30T11:00:38.226Z,1.00
2022-07-30T11:03:15.888Z,1.00
2022-07-30T11:05:45.554Z,1.00
2022-07-30T11:08:48.486Z,1.00
2022-07-30T11:12:01.033Z,1.00
2022-07-30T11:14:22.768Z,1.00
2022-07-30T11:17:01.964Z,1.00
2022-07-30T11:19:55.602Z,1.00
2022-07-30T11:22:26.964Z,1.00
2022-07-30T11:24:55.038Z,1.00
2022-07-30T11:27:36.074Z,1.00
2022-07-30T11:30:04.905Z,1.00
2022-07-30T11:32:33.300Z,1.00
2022-07-30T11:35:15.945Z,1.00
2022-07-30T11:38:18.641Z,1.00
2022-07-30T11:41:01.913Z,1.00
2022-07-30T11:43:35.493Z,1.00
2022-07-30T11:46:06.428Z,1.00
2022-07-30T11:48:34.912Z,1.00
2022-07-30T11:51:04.881Z,1.00
2022-07-30T11:53:32.971Z,1.00
2022-07-30T11:56:03.271Z,1.00
2022-07-30T11:58:32.659Z,1.00
2022-07-30T12:01:01.980Z,1.00
2022-07-30T12:03:31.824Z,1.00
2022-07-30T12:06:06.012Z,1.00
2022-07-30T12:08:40.430Z,1.00
2022-07-30T12:11:08.289Z,1.00
2022-07-30T12:13:44.166Z,1.00
2022-07-30T12:16:13.400Z,1.00
2022-07-30T12:18:41.206Z,1.00
2022-07-30T12:21:12.096Z,1.00
2022-07-30T12:23:41.942Z,1.00
2022-07-30T12:26:10.068Z,1.00
2022-07-30T12:28:38.009Z,1.00
2022-07-30T12:31:06.948Z,1.00
2022-07-30T12:33:35.972Z,1.00
2022-07-30T12:36:06.412Z,1.00
2022-07-30T12:38:44.212Z,1.00
2022-07-30T12:41:12.082Z,1.00
2022-07-30T12:43:43.666Z,1.00
2022-07-30T12:46:14.898Z,1.00
2022-07-30T12:48:52.570Z,1.00
2022-07-30T12:51:20.899Z,1.00
2022-07-30T12:53:50.111Z,1.00
2022-07-30T12:56:18.654Z,1.00
2022-07-30T12:58:46.740Z,1.00
2022-07-30T13:01:16.910Z,1.00
2022-07-30T13:03:45.519Z,1.00
2022-07-30T13:06:15.162Z,1.00
2022-07-30T13:08:46.415Z,1.00
2022-07-30T13:11:15.792Z,1.00
2022-07-30T13:13:43.641Z,1.00
2022-07-30T13:16:11.618Z,1.00
2022-07-30T13:18:39.609Z,1.00
2022-07-30T13:21:09.188Z,1.00
2022-07-30T13:23:41.932Z,1.00
2022-07-30T13:26:10.608Z,1.00
2022-07-30T13:28:40.642Z,1.00
2022-07-30T13:31:09.052Z,1.00
2022-07-30T13:33:37.465Z,1.00
2022-07-30T13:36:05.408Z,1.00
2022-07-30T13:38:33.490Z,1.00
2022-07-30T13:41:02.840Z,1.00
2022-07-30T13:43:32.047Z,1.00
2022-07-30T13:46:04.055Z,1.00
2022-07-30T13:48:32.216Z,1.00
2022-07-30T13:51:00.919Z,1.00
2022-07-30T13:53:29.446Z,1.00
2022-07-30T13:55:59.395Z,1.00
2022-07-30T13:58:27.828Z,1.00
2022-07-30T14:00:55.724Z,1.00
2022-07-30T14:03:24.926Z,1.00
2022-07-30T14:05:53.192Z,1.00
2022-07-30T14:08:21.705Z,1.00
2022-07-30T14:10:49.541Z,1.00
2022-07-30T14:13:20.808Z,1.00
2022-07-30T14:15:49.601Z,1.00
2022-07-30T14:18:17.491Z,1.00
2022-07-30T14:20:48.917Z,1.00
2022-07-30T14:23:17.062Z,1.00
2022-07-30T14:25:44.961Z,1.00
2022-07-30T14:28:12.803Z,1.00
2022-07-30T14:30:40.717Z,1.00
2022-07-30T14:33:08.617Z,1.00
2022-07-30T14:35:36.549Z,1.00
2022-07-30T14:38:06.022Z,1.00
2022-07-30T14:40:34.457Z,1.00
2022-07-30T14:43:02.352Z,1.00
2022-07-30T14:45:30.183Z,1.00
2022-07-30T14:47:58.011Z,1.00
2022-07-30T14:50:25.885Z,1.00
2022-07-30T14:52:53.777Z,1.00
2022-07-30T14:55:22.968Z,1.00
2022-07-30T14:57:50.892Z,1.00
2022-07-30T15:00:19.383Z,1.00
2022-07-30T15:02:49.122Z,1.00
2022-07-30T15:05:17.007Z,1.00
2022-07-30T15:07:44.841Z,1.00
2022-07-30T15:10:12.699Z,1.00
2022-07-30T15:12:42.005Z,1.00
2022-07-30T15:15:11.825Z,1.00
2022-07-30T15:17:44.568Z,1.00
2022-07-30T15:20:12.910Z,1.00
2022-07-30T15:22:40.798Z,1.00
2022-07-30T15:25:09.169Z,1.00
2022-07-30T15:27:39.372Z,1.00
2022-07-30T15:30:12.260Z,1.00
2022-07-30T15:32:40.167Z,1.00
2022-07-30T15:35:13.216Z,1.00
2022-07-30T15:37:41.713Z,1.00
2022-07-30T15:40:09.966Z,1.00
2022-07-30T15:42:37.793Z,1.00
2022-07-30T15:45:21.398Z,1.00
2022-07-30T15:47:50.672Z,1.00
2022-07-30T15:50:18.560Z,1.00
2022-07-30T15:52:46.441Z,1.00
2022-07-30T15:55:14.311Z,1.00
2022-07-30T15:57:43.281Z,1.00
2022-07-30T16:00:12.004Z,1.00
2022-07-30T16:02:41.192Z,1.00
2022-07-30T16:05:13.890Z,1.00
2022-07-30T16:07:42.546Z,1.00
2022-07-30T16:10:10.661Z,1.00
2022-07-30T16:12:39.544Z,1.00
2022-07-30T16:15:07.934Z,1.00
2022-07-30T16:17:37.196Z,1.00
2022-07-30T16:20:06.146Z,1.00
2022-07-30T16:22:35.507Z,1.00
2022-07-30T16:25:03.427Z,1.00
2022-07-30T16:27:31.248Z,1.00
2022-07-30T16:29:59.103Z,1.00
2022-07-30T16:32:26.928Z,1.00
2022-07-30T16:34:54.751Z,1.00
2022-07-30T16:37:22.578Z,1.00
2022-07-30T16:39:51.840Z,1.00
2022-07-30T16:42:19.678Z,1.00
2022-07-30T16:44:47.509Z,1.00
2022-07-30T16:47:15.377Z,1.00
2022-07-30T16:49:43.212Z,1.00
2022-07-30T16:52:11.052Z,1.00
2022-07-30T16:54:38.879Z,1.00
2022-07-30T16:57:10.489Z,1.00
2022-07-30T16:59:38.982Z,1.00
2022-07-30T17:02:11.523Z,1.00
2022-07-30T17:04:39.409Z,1.00
2022-07-30T17:07:07.295Z,1.00
2022-07-30T17:09:36.580Z,1.00
2022-07-30T17:12:09.588Z,1.00
2022-07-30T17:14:41.857Z,1.00
2022-07-30T17:17:14.160Z,1.00
2022-07-30T17:19:42.703Z,1.00
2022-07-30T17:22:10.553Z,1.00
2022-07-30T17:24:38.416Z,1.00
2022-07-30T17:27:06.338Z,1.00
2022-07-30T17:29:34.217Z,1.00
2022-07-30T17:32:19.304Z,1.00
2022-07-30T17:34:47.255Z,1.00
2022-07-30T17:37:15.102Z,1.00
2022-07-30T17:40:19.802Z,1.00
2022-07-30T17:42:30.933Z,1.00
2022-07-30T17:44:59.469Z,1.00
2022-07-30T17:47:28.660Z,1.00
2022-07-30T17:49:57.111Z,1.00
2022-07-30T17:52:26.897Z,1.00
2022-07-30T17:54:55.157Z,1.00
2022-07-30T17:57:23.432Z,1.00
2022-07-30T17:59:51.356Z,1.00
2022-07-30T18:02:20.047Z,1.00
2022-07-30T18:04:56.826Z,1.00
2022-07-30T18:07:24.746Z,1.00
2022-07-30T18:09:52.566Z,1.00
2022-07-30T18:12:20.463Z,1.00
2022-07-30T18:14:48.318Z,1.00
2022-07-30T18:17:16.183Z,1.00
2022-07-30T18:19:44.014Z,1.00
2022-07-30T18:22:14.920Z,1.00
2022-07-30T18:24:43.997Z,1.00
2022-07-30T18:27:12.614Z,1.00
2022-07-30T18:29:40.479Z,1.00
2022-07-30T18:32:08.527Z,1.00
2022-07-30T18:34:36.396Z,1.00
2022-07-30T18:37:04.249Z,1.00
2022-07-30T18:39:33.435Z,1.00
2022-07-30T18:42:02.124Z,1.00
2022-07-30T18:44:30.349Z,1.00
2022-07-30T18:46:58.201Z,1.00
2022-07-30T18:49:36.706Z,1.00
2022-07-30T18:52:06.684Z,1.00
2022-07-30T18:54:36.420Z,1.00
2022-07-30T18:57:04.484Z,1.00
2022-07-30T18:59:32.430Z,1.00
2022-07-30T19:02:00.510Z,1.00
2022-07-30T19:04:28.604Z,1.00
2022-07-30T19:06:56.476Z,1.00
2022-07-30T19:09:24.293Z,1.00
2022-07-30T19:11:53.527Z,1.00
2022-07-30T19:14:21.480Z,1.00
2022-07-30T19:16:49.385Z,1.00
2022-07-30T19:19:19.142Z,1.00
2022-07-30T19:21:47.006Z,1.00
2022-07-30T19:24:14.852Z,1.00
2022-07-30T19:26:44.148Z,1.00
2022-07-30T19:29:13.478Z,1.00
2022-07-30T19:31:42.354Z,1.00
2022-07-30T19:34:10.870Z,1.00
2022-07-30T19:36:39.666Z,1.00
2022-07-30T19:39:08.778Z,1.00
2022-07-30T19:41:40.950Z,1.00
2022-07-30T19:44:09.198Z,1.00
2022-07-30T19:46:38.722Z,1.00
2022-07-30T19:49:09.454Z,1.00
2022-07-30T19:52:10.146Z,1.00
2022-07-30T19:54:26.502Z,1.00
2022-07-30T19:56:54.404Z,1.00
2022-07-30T19:59:43.776Z,1.00
2022-07-30T20:02:13.717Z,1.00
2022-07-30T20:04:41.748Z,1.00
2022-07-30T20:07:11.876Z,1.00
2022-07-30T20:09:42.882Z,1.00
2022-07-30T20:12:12.826Z,1.00
2022-07-30T20:14:43.483Z,1.00
2022-07-30T20:17:13.104Z,1.00
2022-07-30T20:19:47.635Z,1.00
2022-07-30T20:22:16.338Z,1.00
2022-07-30T20:24:45.108Z,1.00
2022-07-30T20:27:35.913Z,1.00
2022-07-30T20:30:01.196Z,1.00
2022-07-30T20:32:30.567Z,1.00
2022-07-30T20:34:58.487Z,1.00
2022-07-30T20:37:27.553Z,1.00
2022-07-30T20:39:55.919Z,1.00
2022-07-30T20:42:24.232Z,1.00
2022-07-30T20:44:54.389Z,1.00
2022-07-30T20:47:34.329Z,1.00
2022-07-30T20:50:03.753Z,1.00
2022-07-30T20:52:31.681Z,1.00
2022-07-30T20:54:59.734Z,1.00
2022-07-30T20:57:56.313Z,1.00
2022-07-30T21:00:18.656Z,1.00
2022-07-30T21:02:48.253Z,1.00
2022-07-30T21:05:19.824Z,1.00
2022-07-30T21:07:48.230Z,1.00
2022-07-30T21:10:23.671Z,1.00
2022-07-30T21:13:02.936Z,1.00
2022-07-30T21:15:32.744Z,1.00
2022-07-30T21:18:01.821Z,1.00
2022-07-30T21:20:31.459Z,1.00
2022-07-30T21:23:04.098Z,1.00
2022-07-30T21:25:32.660Z,1.00
2022-07-30T21:28:02.953Z,1.00
2022-07-30T21:30:31.179Z,1.00
2022-07-30T21:33:00.661Z,1.00
2022-07-30T21:35:32.244Z,1.00
2022-07-30T21:38:01.687Z,1.00
2022-07-30T21:40:30.934Z,1.00
2022-07-30T21:42:58.780Z,1.00
2022-07-30T21:45:28.345Z,1.00
2022-07-30T21:48:07.048Z,1.00
2022-07-30T21:50:35.057Z,1.00
2022-07-30T21:53:04.527Z,1.00
2022-07-30T21:55:33.540Z,1.00
2022-07-30T21:58:24.079Z,1.00
2022-07-30T22:01:16.665Z,1.00
2022-07-30T22:04:03.195Z,1.00
2022-07-30T22:06:34.344Z,1.00
2022-07-30T22:09:18.041Z,1.00
2022-07-30T22:11:46.738Z,1.00
2022-07-30T22:14:15.644Z,9.60
2022-07-30T22:16:46.081Z,5.00
2022-07-30T22:19:14.748Z,1.00
2022-07-30T22:21:42.899Z,53.20
2022-07-30T22:24:29.395Z,29.90
2022-07-30T22:27:01.113Z,13.30
2022-07-30T22:29:34.157Z,53.40
2022-07-30T22:32:03.613Z,20.30
2022-07-30T22:34:32.080Z,7.90
2022-07-30T22:36:59.879Z,14.20
2022-07-30T22:39:31.643Z,18.60
2022-07-30T22:42:16.962Z,33.60
2022-07-30T22:44:46.103Z,57.60
2022-07-30T22:47:18.990Z,48.70
2022-07-30T22:49:56.752Z,31.70
2022-07-30T22:52:30.779Z,35.00
2022-07-30T22:55:08.734Z,82.20
2022-07-30T22:57:38.088Z,80.90
2022-07-30T23:00:11.144Z,99.90
2022-07-30T23:02:39.718Z,99.90
2022-07-30T23:05:07.949Z,99.90
2022-07-30T23:07:40.405Z,99.90
2022-07-30T23:10:17.323Z,99.90
2022-07-30T23:12:48.037Z,99.90
2022-07-30T23:15:16.242Z,99.90
2022-07-30T23:17:44.538Z,99.90
2022-07-30T23:20:14.042Z,99.90
2022-07-30T23:22:41.890Z,99.90
2022-07-30T23:25:11.760Z,99.90
2022-07-30T23:27:39.700Z,1.00
2022-07-30T23:30:08.629Z,30.40
2022-07-30T23:32:36.727Z,1.00
2022-07-30T23:35:04.828Z,1.00
2022-07-30T23:37:47.857Z,99.90
2022-07-30T23:40:18.368Z,99.90
2022-07-30T23:42:46.257Z,99.90
2022-07-30T23:45:14.137Z,99.90
2022-07-30T23:48:02.050Z,99.90
2022-07-30T23:50:29.993Z,99.90
2022-07-30T23:52:57.847Z,99.90
2022-07-30T23:55:27.986Z,99.90
2022-07-30T23:57:55.965Z,99.90
